Terminal Aerodrome Forecast
Issued by NWS

Home | Current Version | Previous Version | Text Only | Print | Product List | Glossary On
Versions: 1 2 3 4 5 6 7 8 9 10 11 12 13 14 15 16 17 18 19 20 21 22 23 24 25 26 27 28 29
000
FTUS41 KBUF 230800 AAB
TAFJHW
TAF AMD
KJHW 230900Z 2309/2406 00000KT 4SM BR OVC008
      TEMPO 2309/2312 1SM BR OVC002
     FM231200 VRB03KT 2SM BR SCT002 OVC015
     FM231500 06004KT P6SM BKN030
     FM231800 01008KT P6SM BKN025
     FM240100 07009KT P6SM BKN012
      AMD LTD TO CLD VIS AND WIND=

USA.gov is the U.S. government's official web portal to all federal, state and local government web resources and services.